sensor_id;sensor_type;location;lat;lon;timestamp;P1;durP1;ratioP1;P2;durP2;ratioP2
63093;SDS011;49183;51.380;0.098;2023-12-20T00:01:21;11.93;;;3.10;;
63093;SDS011;49183;51.380;0.098;2023-12-20T00:03:50;17.88;;;4.00;;
63093;SDS011;49183;51.380;0.098;2023-12-20T00:06:17;11.02;;;2.25;;
63093;SDS011;49183;51.380;0.098;2023-12-20T00:08:46;9.77;;;2.70;;
63093;SDS011;49183;51.380;0.098;2023-12-20T00:11:13;18.50;;;3.65;;
63093;SDS011;49183;51.380;0.098;2023-12-20T00:13:41;13.05;;;2.42;;
63093;SDS011;49183;51.380;0.098;2023-12-20T00:16:09;11.40;;;3.00;;
63093;SDS011;49183;51.380;0.098;2023-12-20T00:18:37;13.45;;;2.85;;
63093;SDS011;49183;51.380;0.098;2023-12-20T00:21:05;12.90;;;3.60;;
63093;SDS011;49183;51.380;0.098;2023-12-20T00:23:33;7.90;;;2.37;;
63093;SDS011;49183;51.380;0.098;2023-12-20T00:26:01;9.38;;;3.25;;
63093;SDS011;49183;51.380;0.098;2023-12-20T00:28:29;8.40;;;2.78;;
63093;SDS011;49183;51.380;0.098;2023-12-20T00:30:57;9.97;;;2.60;;
63093;SDS011;49183;51.380;0.098;2023-12-20T00:33:25;15.48;;;2.95;;
63093;SDS011;49183;51.380;0.098;2023-12-20T00:35:53;14.80;;;2.35;;
63093;SDS011;49183;51.380;0.098;2023-12-20T00:38:22;10.95;;;2.05;;
63093;SDS011;49183;51.380;0.098;2023-12-20T00:40:49;13.32;;;3.65;;
63093;SDS011;49183;51.380;0.098;2023-12-20T00:43:17;13.20;;;3.42;;
63093;SDS011;49183;51.380;0.098;2023-12-20T00:45:45;15.45;;;2.65;;
63093;SDS011;49183;51.380;0.098;2023-12-20T00:48:13;12.55;;;2.63;;
63093;SDS011;49183;51.380;0.098;2023-12-20T00:50:41;12.52;;;2.90;;
63093;SDS011;49183;51.380;0.098;2023-12-20T00:53:09;18.98;;;4.38;;
63093;SDS011;49183;51.380;0.098;2023-12-20T00:55:36;10.55;;;2.72;;
63093;SDS011;49183;51.380;0.098;2023-12-20T00:58:04;9.50;;;2.72;;
63093;SDS011;49183;51.380;0.098;2023-12-20T01:00:32;9.68;;;2.58;;
63093;SDS011;49183;51.380;0.098;2023-12-20T01:03:00;11.68;;;2.40;;
63093;SDS011;49183;51.380;0.098;2023-12-20T01:05:28;12.15;;;2.38;;
63093;SDS011;49183;51.380;0.098;2023-12-20T01:07:56;12.73;;;3.05;;
63093;SDS011;49183;51.380;0.098;2023-12-20T01:10:23;15.68;;;2.45;;
63093;SDS011;49183;51.380;0.098;2023-12-20T01:12:55;13.60;;;2.63;;
63093;SDS011;49183;51.380;0.098;2023-12-20T01:15:23;7.57;;;2.67;;
63093;SDS011;49183;51.380;0.098;2023-12-20T01:17:54;11.23;;;2.65;;
63093;SDS011;49183;51.380;0.098;2023-12-20T01:20:24;11.30;;;3.33;;
63093;SDS011;49183;51.380;0.098;2023-12-20T01:22:52;15.57;;;2.53;;
63093;SDS011;49183;51.380;0.098;2023-12-20T01:25:20;8.20;;;2.28;;
63093;SDS011;49183;51.380;0.098;2023-12-20T01:27:48;9.48;;;2.38;;
63093;SDS011;49183;51.380;0.098;2023-12-20T01:30:17;13.02;;;4.13;;
63093;SDS011;49183;51.380;0.098;2023-12-20T01:32:45;19.65;;;3.83;;
63093;SDS011;49183;51.380;0.098;2023-12-20T01:35:13;12.02;;;3.25;;
63093;SDS011;49183;51.380;0.098;2023-12-20T01:37:41;6.95;;;2.13;;
63093;SDS011;49183;51.380;0.098;2023-12-20T01:40:09;9.57;;;2.10;;
63093;SDS011;49183;51.380;0.098;2023-12-20T01:42:37;11.83;;;2.80;;
63093;SDS011;49183;51.380;0.098;2023-12-20T01:45:05;11.95;;;3.03;;
63093;SDS011;49183;51.380;0.098;2023-12-20T01:47:34;8.60;;;2.70;;
63093;SDS011;49183;51.380;0.098;2023-12-20T01:50:04;9.15;;;2.92;;
63093;SDS011;49183;51.380;0.098;2023-12-20T01:52:35;12.25;;;3.05;;
63093;SDS011;49183;51.380;0.098;2023-12-20T01:55:04;6.97;;;2.15;;
63093;SDS011;49183;51.380;0.098;2023-12-20T01:57:40;12.43;;;2.58;;
63093;SDS011;49183;51.380;0.098;2023-12-20T02:00:10;7.68;;;2.20;;
63093;SDS011;49183;51.380;0.098;2023-12-20T02:02:40;11.00;;;2.17;;
63093;SDS011;49183;51.380;0.098;2023-12-20T02:05:09;10.45;;;2.78;;
63093;SDS011;49183;51.380;0.098;2023-12-20T02:07:37;12.43;;;2.90;;
63093;SDS011;49183;51.380;0.098;2023-12-20T02:10:05;13.88;;;3.35;;
63093;SDS011;49183;51.380;0.098;2023-12-20T02:12:34;12.93;;;3.08;;
63093;SDS011;49183;51.380;0.098;2023-12-20T02:15:02;15.18;;;2.80;;
63093;SDS011;49183;51.380;0.098;2023-12-20T02:17:33;9.15;;;2.42;;
63093;SDS011;49183;51.380;0.098;2023-12-20T02:20:01;12.57;;;2.65;;
63093;SDS011;49183;51.380;0.098;2023-12-20T02:22:30;12.93;;;3.05;;
63093;SDS011;49183;51.380;0.098;2023-12-20T02:24:58;10.38;;;1.98;;
63093;SDS011;49183;51.380;0.098;2023-12-20T02:27:30;15.00;;;3.00;;
63093;SDS011;49183;51.380;0.098;2023-12-20T02:29:58;15.13;;;3.33;;
63093;SDS011;49183;51.380;0.098;2023-12-20T02:32:26;9.02;;;2.45;;
63093;SDS011;49183;51.380;0.098;2023-12-20T02:34:56;6.90;;;1.90;;
63093;SDS011;49183;51.380;0.098;2023-12-20T02:37:25;13.05;;;4.10;;
63093;SDS011;49183;51.380;0.098;2023-12-20T02:39:53;9.05;;;2.58;;
63093;SDS011;49183;51.380;0.098;2023-12-20T02:42:21;7.47;;;2.13;;
63093;SDS011;49183;51.380;0.098;2023-12-20T02:44:49;10.43;;;2.55;;
63093;SDS011;49183;51.380;0.098;2023-12-20T02:47:17;13.23;;;2.85;;
63093;SDS011;49183;51.380;0.098;2023-12-20T02:49:45;10.02;;;2.08;;
63093;SDS011;49183;51.380;0.098;2023-12-20T02:52:13;12.00;;;2.17;;
63093;SDS011;49183;51.380;0.098;2023-12-20T02:54:41;9.27;;;3.47;;
63093;SDS011;49183;51.380;0.098;2023-12-20T02:57:09;6.93;;;2.17;;
63093;SDS011;49183;51.380;0.098;2023-12-20T02:59:37;10.95;;;2.70;;
63093;SDS011;49183;51.380;0.098;2023-12-20T03:02:05;10.70;;;2.60;;
63093;SDS011;49183;51.380;0.098;2023-12-20T03:04:33;7.03;;;2.73;;
63093;SDS011;49183;51.380;0.098;2023-12-20T03:07:01;10.77;;;2.40;;
63093;SDS011;49183;51.380;0.098;2023-12-20T03:09:29;8.60;;;2.22;;
63093;SDS011;49183;51.380;0.098;2023-12-20T03:12:13;9.95;;;2.33;;
63093;SDS011;49183;51.380;0.098;2023-12-20T03:14:41;13.15;;;2.50;;
63093;SDS011;49183;51.380;0.098;2023-12-20T03:17:10;15.43;;;3.35;;
63093;SDS011;49183;51.380;0.098;2023-12-20T03:19:38;10.07;;;2.10;;
63093;SDS011;49183;51.380;0.098;2023-12-20T03:22:06;9.65;;;2.50;;
63093;SDS011;49183;51.380;0.098;2023-12-20T03:24:34;4.53;;;2.20;;
63093;SDS011;49183;51.380;0.098;2023-12-20T03:27:02;14.35;;;2.83;;
63093;SDS011;49183;51.380;0.098;2023-12-20T03:29:30;10.73;;;2.10;;
63093;SDS011;49183;51.380;0.098;2023-12-20T03:31:58;7.68;;;2.88;;
63093;SDS011;49183;51.380;0.098;2023-12-20T03:34:26;9.75;;;2.25;;
63093;SDS011;49183;51.380;0.098;2023-12-20T03:36:56;18.13;;;5.05;;
63093;SDS011;49183;51.380;0.098;2023-12-20T03:39:24;10.52;;;2.78;;
63093;SDS011;49183;51.380;0.098;2023-12-20T03:41:53;8.32;;;2.80;;
63093;SDS011;49183;51.380;0.098;2023-12-20T03:44:20;10.60;;;2.20;;
63093;SDS011;49183;51.380;0.098;2023-12-20T03:46:49;13.40;;;3.97;;
63093;SDS011;49183;51.380;0.098;2023-12-20T03:49:17;7.87;;;2.37;;
63093;SDS011;49183;51.380;0.098;2023-12-20T03:51:46;8.27;;;2.00;;
63093;SDS011;49183;51.380;0.098;2023-12-20T03:54:13;8.63;;;1.92;;
63093;SDS011;49183;51.380;0.098;2023-12-20T03:56:41;8.50;;;1.90;;
63093;SDS011;49183;51.380;0.098;2023-12-20T03:59:09;9.43;;;2.17;;
63093;SDS011;49183;51.380;0.098;2023-12-20T04:01:36;13.00;;;2.60;;
63093;SDS011;49183;51.380;0.098;2023-12-20T04:04:05;12.73;;;2.80;;
63093;SDS011;49183;51.380;0.098;2023-12-20T04:06:33;8.75;;;2.03;;
63093;SDS011;49183;51.380;0.098;2023-12-20T04:09:01;8.83;;;2.30;;
63093;SDS011;49183;51.380;0.098;2023-12-20T04:11:29;12.00;;;2.53;;
63093;SDS011;49183;51.380;0.098;2023-12-20T04:13:58;5.87;;;1.73;;
63093;SDS011;49183;51.380;0.098;2023-12-20T04:16:26;10.90;;;2.38;;
63093;SDS011;49183;51.380;0.098;2023-12-20T04:18:54;10.15;;;2.38;;
63093;SDS011;49183;51.380;0.098;2023-12-20T04:21:23;14.23;;;3.22;;
63093;SDS011;49183;51.380;0.098;2023-12-20T04:23:52;13.40;;;2.45;;
63093;SDS011;49183;51.380;0.098;2023-12-20T04:26:20;12.80;;;1.98;;
63093;SDS011;49183;51.380;0.098;2023-12-20T04:28:49;11.30;;;2.35;;
63093;SDS011;49183;51.380;0.098;2023-12-20T04:31:20;15.02;;;2.38;;
63093;SDS011;49183;51.380;0.098;2023-12-20T04:33:48;9.60;;;2.70;;
63093;SDS011;49183;51.380;0.098;2023-12-20T04:36:16;5.80;;;2.30;;
63093;SDS011;49183;51.380;0.098;2023-12-20T04:38:44;7.38;;;2.35;;
63093;SDS011;49183;51.380;0.098;2023-12-20T04:41:13;8.87;;;2.00;;
63093;SDS011;49183;51.380;0.098;2023-12-20T04:43:43;5.68;;;2.05;;
63093;SDS011;49183;51.380;0.098;2023-12-20T04:46:11;9.63;;;2.30;;
63093;SDS011;49183;51.380;0.098;2023-12-20T04:48:39;10.57;;;2.78;;
63093;SDS011;49183;51.380;0.098;2023-12-20T04:51:08;7.57;;;1.95;;
63093;SDS011;49183;51.380;0.098;2023-12-20T04:53:36;7.68;;;2.00;;
63093;SDS011;49183;51.380;0.098;2023-12-20T04:56:04;5.63;;;1.92;;
63093;SDS011;49183;51.380;0.098;2023-12-20T04:58:32;6.90;;;2.05;;
63093;SDS011;49183;51.380;0.098;2023-12-20T05:01:00;7.95;;;1.77;;
63093;SDS011;49183;51.380;0.098;2023-12-20T05:03:28;5.32;;;1.67;;
63093;SDS011;49183;51.380;0.098;2023-12-20T05:05:56;7.78;;;1.65;;
63093;SDS011;49183;51.380;0.098;2023-12-20T05:08:24;8.63;;;1.60;;
63093;SDS011;49183;51.380;0.098;2023-12-20T05:10:55;9.48;;;1.90;;
63093;SDS011;49183;51.380;0.098;2023-12-20T05:13:23;11.70;;;2.63;;
63093;SDS011;49183;51.380;0.098;2023-12-20T05:16:04;7.93;;;2.15;;
63093;SDS011;49183;51.380;0.098;2023-12-20T05:18:32;8.55;;;1.88;;
63093;SDS011;49183;51.380;0.098;2023-12-20T05:21:00;9.52;;;2.08;;
63093;SDS011;49183;51.380;0.098;2023-12-20T05:23:29;6.45;;;1.80;;
63093;SDS011;49183;51.380;0.098;2023-12-20T05:25:57;5.85;;;2.55;;
63093;SDS011;49183;51.380;0.098;2023-12-20T05:30:56;12.60;;;2.20;;
63093;SDS011;49183;51.380;0.098;2023-12-20T05:33:24;7.38;;;2.58;;
63093;SDS011;49183;51.380;0.098;2023-12-20T05:35:52;6.15;;;1.85;;
63093;SDS011;49183;51.380;0.098;2023-12-20T05:38:20;7.78;;;1.95;;
63093;SDS011;49183;51.380;0.098;2023-12-20T05:40:48;12.10;;;2.90;;
63093;SDS011;49183;51.380;0.098;2023-12-20T05:43:16;7.13;;;2.00;;
63093;SDS011;49183;51.380;0.098;2023-12-20T05:45:44;7.22;;;1.95;;
63093;SDS011;49183;51.380;0.098;2023-12-20T05:48:12;11.65;;;2.90;;
63093;SDS011;49183;51.380;0.098;2023-12-20T05:50:40;10.07;;;1.70;;
63093;SDS011;49183;51.380;0.098;2023-12-20T05:53:08;11.55;;;2.88;;
63093;SDS011;49183;51.380;0.098;2023-12-20T05:55:36;8.98;;;2.20;;
63093;SDS011;49183;51.380;0.098;2023-12-20T05:58:04;7.20;;;2.75;;
63093;SDS011;49183;51.380;0.098;2023-12-20T06:00:33;9.65;;;1.90;;
63093;SDS011;49183;51.380;0.098;2023-12-20T06:05:30;6.78;;;1.88;;
63093;SDS011;49183;51.380;0.098;2023-12-20T06:07:59;3.22;;;1.52;;
63093;SDS011;49183;51.380;0.098;2023-12-20T06:10:30;8.13;;;2.90;;
63093;SDS011;49183;51.380;0.098;2023-12-20T06:12:59;9.52;;;1.98;;
63093;SDS011;49183;51.380;0.098;2023-12-20T06:17:55;14.80;;;3.10;;
63093;SDS011;49183;51.380;0.098;2023-12-20T06:20:23;13.38;;;2.45;;
63093;SDS011;49183;51.380;0.098;2023-12-20T06:22:52;7.22;;;2.33;;
63093;SDS011;49183;51.380;0.098;2023-12-20T06:25:20;9.45;;;3.00;;
63093;SDS011;49183;51.380;0.098;2023-12-20T06:27:48;14.38;;;2.03;;
63093;SDS011;49183;51.380;0.098;2023-12-20T06:30:16;9.48;;;2.28;;
63093;SDS011;49183;51.380;0.098;2023-12-20T06:32:44;9.25;;;1.80;;
63093;SDS011;49183;51.380;0.098;2023-12-20T06:35:14;6.10;;;1.25;;
63093;SDS011;49183;51.380;0.098;2023-12-20T06:37:43;11.20;;;2.45;;
63093;SDS011;49183;51.380;0.098;2023-12-20T06:40:11;12.63;;;4.87;;
63093;SDS011;49183;51.380;0.098;2023-12-20T06:42:45;8.95;;;2.28;;
63093;SDS011;49183;51.380;0.098;2023-12-20T06:45:31;9.55;;;1.80;;
63093;SDS011;49183;51.380;0.098;2023-12-20T06:47:59;5.32;;;1.52;;
63093;SDS011;49183;51.380;0.098;2023-12-20T06:50:27;6.45;;;2.25;;
63093;SDS011;49183;51.380;0.098;2023-12-20T06:52:55;10.25;;;1.65;;
63093;SDS011;49183;51.380;0.098;2023-12-20T06:55:23;9.23;;;2.03;;
63093;SDS011;49183;51.380;0.098;2023-12-20T06:57:51;12.43;;;1.98;;
63093;SDS011;49183;51.380;0.098;2023-12-20T07:00:19;6.20;;;1.80;;
63093;SDS011;49183;51.380;0.098;2023-12-20T07:02:48;11.35;;;1.60;;
63093;SDS011;49183;51.380;0.098;2023-12-20T07:05:16;11.98;;;2.03;;
63093;SDS011;49183;51.380;0.098;2023-12-20T07:07:47;9.02;;;2.35;;
63093;SDS011;49183;51.380;0.098;2023-12-20T07:10:15;7.97;;;1.77;;
63093;SDS011;49183;51.380;0.098;2023-12-20T07:12:43;7.88;;;2.22;;
63093;SDS011;49183;51.380;0.098;2023-12-20T07:15:11;5.63;;;1.48;;
63093;SDS011;49183;51.380;0.098;2023-12-20T07:17:39;6.40;;;1.90;;
63093;SDS011;49183;51.380;0.098;2023-12-20T07:20:07;14.32;;;1.90;;
63093;SDS011;49183;51.380;0.098;2023-12-20T07:22:38;6.85;;;2.20;;
63093;SDS011;49183;51.380;0.098;2023-12-20T07:25:07;8.07;;;1.60;;
63093;SDS011;49183;51.380;0.098;2023-12-20T07:27:35;10.30;;;2.38;;
63093;SDS011;49183;51.380;0.098;2023-12-20T07:30:03;5.43;;;1.75;;
63093;SDS011;49183;51.380;0.098;2023-12-20T07:32:31;6.80;;;1.43;;
63093;SDS011;49183;51.380;0.098;2023-12-20T07:34:59;7.93;;;1.92;;
63093;SDS011;49183;51.380;0.098;2023-12-20T07:37:27;8.43;;;2.00;;
63093;SDS011;49183;51.380;0.098;2023-12-20T07:39:55;3.67;;;1.52;;
63093;SDS011;49183;51.380;0.098;2023-12-20T07:42:24;7.20;;;1.88;;
63093;SDS011;49183;51.380;0.098;2023-12-20T07:44:53;9.90;;;2.10;;
63093;SDS011;49183;51.380;0.098;2023-12-20T07:47:22;11.30;;;2.33;;
63093;SDS011;49183;51.380;0.098;2023-12-20T07:49:50;8.95;;;1.70;;
63093;SDS011;49183;51.380;0.098;2023-12-20T07:52:19;8.73;;;1.52;;
63093;SDS011;49183;51.380;0.098;2023-12-20T07:54:49;6.68;;;1.92;;
63093;SDS011;49183;51.380;0.098;2023-12-20T07:57:17;6.97;;;1.75;;
63093;SDS011;49183;51.380;0.098;2023-12-20T07:59:45;9.88;;;1.67;;
63093;SDS011;49183;51.380;0.098;2023-12-20T08:02:14;9.00;;;1.83;;
63093;SDS011;49183;51.380;0.098;2023-12-20T08:04:42;7.30;;;3.60;;
63093;SDS011;49183;51.380;0.098;2023-12-20T08:07:10;9.20;;;1.98;;
63093;SDS011;49183;51.380;0.098;2023-12-20T08:09:38;7.90;;;2.30;;
63093;SDS011;49183;51.380;0.098;2023-12-20T08:12:08;8.73;;;1.92;;
63093;SDS011;49183;51.380;0.098;2023-12-20T08:14:36;8.63;;;1.65;;
63093;SDS011;49183;51.380;0.098;2023-12-20T08:17:04;10.40;;;2.40;;
63093;SDS011;49183;51.380;0.098;2023-12-20T08:19:32;7.50;;;2.05;;
63093;SDS011;49183;51.380;0.098;2023-12-20T08:22:01;6.25;;;1.60;;
63093;SDS011;49183;51.380;0.098;2023-12-20T08:24:30;6.68;;;1.95;;
63093;SDS011;49183;51.380;0.098;2023-12-20T08:26:58;10.40;;;2.63;;
63093;SDS011;49183;51.380;0.098;2023-12-20T08:29:26;13.93;;;3.47;;
63093;SDS011;49183;51.380;0.098;2023-12-20T08:31:54;12.48;;;2.60;;
63093;SDS011;49183;51.380;0.098;2023-12-20T08:36:52;7.10;;;2.63;;
63093;SDS011;49183;51.380;0.098;2023-12-20T08:39:20;8.02;;;2.15;;
63093;SDS011;49183;51.380;0.098;2023-12-20T08:41:48;5.20;;;1.77;;
63093;SDS011;49183;51.380;0.098;2023-12-20T08:44:16;9.90;;;2.65;;
63093;SDS011;49183;51.380;0.098;2023-12-20T08:46:44;11.63;;;1.88;;
63093;SDS011;49183;51.380;0.098;2023-12-20T08:49:12;6.95;;;1.88;;
63093;SDS011;49183;51.380;0.098;2023-12-20T08:51:41;8.18;;;1.92;;
63093;SDS011;49183;51.380;0.098;2023-12-20T08:54:09;12.25;;;2.42;;
63093;SDS011;49183;51.380;0.098;2023-12-20T08:56:37;10.07;;;2.60;;
63093;SDS011;49183;51.380;0.098;2023-12-20T08:59:05;5.40;;;1.80;;
63093;SDS011;49183;51.380;0.098;2023-12-20T09:01:34;13.13;;;2.05;;
63093;SDS011;49183;51.380;0.098;2023-12-20T09:04:02;13.80;;;2.57;;
63093;SDS011;49183;51.380;0.098;2023-12-20T09:06:31;12.98;;;1.75;;
63093;SDS011;49183;51.380;0.098;2023-12-20T09:08:59;13.05;;;2.38;;
63093;SDS011;49183;51.380;0.098;2023-12-20T09:11:27;5.47;;;1.70;;
63093;SDS011;49183;51.380;0.098;2023-12-20T09:13:55;7.00;;;1.90;;
63093;SDS011;49183;51.380;0.098;2023-12-20T09:16:23;5.93;;;1.50;;
63093;SDS011;49183;51.380;0.098;2023-12-20T09:18:51;6.28;;;1.95;;
63093;SDS011;49183;51.380;0.098;2023-12-20T09:21:19;4.72;;;1.50;;
63093;SDS011;49183;51.380;0.098;2023-12-20T09:23:47;8.50;;;2.28;;
63093;SDS011;49183;51.380;0.098;2023-12-20T09:26:15;11.60;;;2.17;;
63093;SDS011;49183;51.380;0.098;2023-12-20T09:28:44;6.47;;;2.38;;
63093;SDS011;49183;51.380;0.098;2023-12-20T09:31:13;9.32;;;2.63;;
63093;SDS011;49183;51.380;0.098;2023-12-20T09:33:42;4.95;;;1.42;;
63093;SDS011;49183;51.380;0.098;2023-12-20T09:36:10;5.68;;;2.30;;
63093;SDS011;49183;51.380;0.098;2023-12-20T09:38:39;6.00;;;1.60;;
63093;SDS011;49183;51.380;0.098;2023-12-20T09:41:07;10.00;;;1.90;;
63093;SDS011;49183;51.380;0.098;2023-12-20T09:43:38;4.68;;;1.35;;
63093;SDS011;49183;51.380;0.098;2023-12-20T09:46:07;10.80;;;2.00;;
63093;SDS011;49183;51.380;0.098;2023-12-20T09:48:39;5.80;;;1.65;;
63093;SDS011;49183;51.380;0.098;2023-12-20T09:51:10;7.53;;;1.73;;
63093;SDS011;49183;51.380;0.098;2023-12-20T09:53:37;5.47;;;2.15;;
63093;SDS011;49183;51.380;0.098;2023-12-20T09:56:07;3.47;;;1.30;;
63093;SDS011;49183;51.380;0.098;2023-12-20T09:58:36;6.90;;;1.63;;
63093;SDS011;49183;51.380;0.098;2023-12-20T10:01:06;8.27;;;1.40;;
63093;SDS011;49183;51.380;0.098;2023-12-20T10:03:35;2.20;;;1.42;;
63093;SDS011;49183;51.380;0.098;2023-12-20T10:06:08;7.40;;;1.75;;
63093;SDS011;49183;51.380;0.098;2023-12-20T10:08:36;4.82;;;1.65;;
63093;SDS011;49183;51.380;0.098;2023-12-20T10:11:05;5.47;;;1.10;;
63093;SDS011;49183;51.380;0.098;2023-12-20T10:13:33;7.57;;;1.70;;
63093;SDS011;49183;51.380;0.098;2023-12-20T10:16:01;4.33;;;1.70;;
63093;SDS011;49183;51.380;0.098;2023-12-20T10:18:30;7.82;;;1.13;;
63093;SDS011;49183;51.380;0.098;2023-12-20T10:21:06;4.97;;;1.60;;
63093;SDS011;49183;51.380;0.098;2023-12-20T10:23:37;3.83;;;1.15;;
63093;SDS011;49183;51.380;0.098;2023-12-20T10:26:07;7.63;;;1.27;;
63093;SDS011;49183;51.380;0.098;2023-12-20T10:28:36;3.10;;;0.90;;
63093;SDS011;49183;51.380;0.098;2023-12-20T10:31:05;3.70;;;1.10;;
63093;SDS011;49183;51.380;0.098;2023-12-20T10:33:34;1.98;;;0.82;;
63093;SDS011;49183;51.380;0.098;2023-12-20T10:36:02;4.75;;;1.45;;
63093;SDS011;49183;51.380;0.098;2023-12-20T10:38:30;6.90;;;1.13;;
63093;SDS011;49183;51.380;0.098;2023-12-20T10:40:58;2.95;;;0.80;;
63093;SDS011;49183;51.380;0.098;2023-12-20T10:43:28;4.38;;;1.23;;
63093;SDS011;49183;51.380;0.098;2023-12-20T10:46:00;3.30;;;1.02;;
63093;SDS011;49183;51.380;0.098;2023-12-20T10:48:30;2.58;;;0.80;;
63093;SDS011;49183;51.380;0.098;2023-12-20T10:53:28;5.20;;;1.17;;
63093;SDS011;49183;51.380;0.098;2023-12-20T10:55:57;2.20;;;0.70;;
63093;SDS011;49183;51.380;0.098;2023-12-20T10:58:30;4.07;;;1.13;;
63093;SDS011;49183;51.380;0.098;2023-12-20T11:01:02;3.15;;;1.05;;
63093;SDS011;49183;51.380;0.098;2023-12-20T11:03:35;3.83;;;1.17;;
63093;SDS011;49183;51.380;0.098;2023-12-20T11:06:16;3.35;;;1.05;;
63093;SDS011;49183;51.380;0.098;2023-12-20T11:09:01;1.83;;;1.00;;
63093;SDS011;49183;51.380;0.098;2023-12-20T11:12:00;4.25;;;1.40;;
63093;SDS011;49183;51.380;0.098;2023-12-20T11:14:54;1.88;;;0.90;;
63093;SDS011;49183;51.380;0.098;2023-12-20T11:17:25;3.65;;;1.35;;
63093;SDS011;49183;51.380;0.098;2023-12-20T11:22:30;6.57;;;2.17;;
63093;SDS011;49183;51.380;0.098;2023-12-20T11:27:36;5.32;;;2.60;;
63093;SDS011;49183;51.380;0.098;2023-12-20T11:30:08;6.78;;;2.08;;
63093;SDS011;49183;51.380;0.098;2023-12-20T11:32:37;3.72;;;1.40;;
63093;SDS011;49183;51.380;0.098;2023-12-20T11:37:37;9.93;;;2.40;;
63093;SDS011;49183;51.380;0.098;2023-12-20T11:40:06;5.68;;;1.67;;
63093;SDS011;49183;51.380;0.098;2023-12-20T11:42:50;6.82;;;2.47;;
63093;SDS011;49183;51.380;0.098;2023-12-20T11:45:23;7.22;;;2.13;;
63093;SDS011;49183;51.380;0.098;2023-12-20T11:47:57;6.18;;;1.70;;
63093;SDS011;49183;51.380;0.098;2023-12-20T11:50:26;7.88;;;1.92;;
63093;SDS011;49183;51.380;0.098;2023-12-20T11:52:56;6.78;;;2.40;;
63093;SDS011;49183;51.380;0.098;2023-12-20T11:55:24;6.60;;;1.63;;
63093;SDS011;49183;51.380;0.098;2023-12-20T11:57:53;5.10;;;1.75;;
63093;SDS011;49183;51.380;0.098;2023-12-20T12:00:22;5.18;;;1.73;;
63093;SDS011;49183;51.380;0.098;2023-12-20T12:03:00;4.43;;;2.13;;
63093;SDS011;49183;51.380;0.098;2023-12-20T12:05:30;5.72;;;1.80;;
63093;SDS011;49183;51.380;0.098;2023-12-20T12:08:00;7.78;;;1.98;;
63093;SDS011;49183;51.380;0.098;2023-12-20T12:10:31;4.63;;;2.17;;
63093;SDS011;49183;51.380;0.098;2023-12-20T12:12:59;8.93;;;1.50;;
63093;SDS011;49183;51.380;0.098;2023-12-20T12:15:29;3.92;;;1.50;;
63093;SDS011;49183;51.380;0.098;2023-12-20T12:17:57;7.13;;;1.20;;
63093;SDS011;49183;51.380;0.098;2023-12-20T12:20:26;6.82;;;1.45;;
63093;SDS011;49183;51.380;0.098;2023-12-20T12:22:59;4.47;;;1.10;;
63093;SDS011;49183;51.380;0.098;2023-12-20T12:25:30;6.95;;;1.95;;
63093;SDS011;49183;51.380;0.098;2023-12-20T12:28:01;2.95;;;1.50;;
63093;SDS011;49183;51.380;0.098;2023-12-20T12:30:29;2.17;;;0.98;;
63093;SDS011;49183;51.380;0.098;2023-12-20T12:33:05;4.45;;;1.65;;
63093;SDS011;49183;51.380;0.098;2023-12-20T12:35:33;5.50;;;0.90;;
63093;SDS011;49183;51.380;0.098;2023-12-20T12:38:03;4.53;;;1.40;;
63093;SDS011;49183;51.380;0.098;2023-12-20T12:40:34;5.30;;;1.92;;
63093;SDS011;49183;51.380;0.098;2023-12-20T12:43:03;2.40;;;1.30;;
63093;SDS011;49183;51.380;0.098;2023-12-20T12:45:33;6.85;;;2.30;;
63093;SDS011;49183;51.380;0.098;2023-12-20T12:48:02;4.97;;;1.90;;
63093;SDS011;49183;51.380;0.098;2023-12-20T12:50:30;7.55;;;3.17;;
63093;SDS011;49183;51.380;0.098;2023-12-20T12:52:59;3.90;;;2.10;;
63093;SDS011;49183;51.380;0.098;2023-12-20T12:55:27;4.72;;;1.60;;
63093;SDS011;49183;51.380;0.098;2023-12-20T12:57:55;6.93;;;2.30;;
63093;SDS011;49183;51.380;0.098;2023-12-20T13:00:23;7.72;;;1.52;;
63093;SDS011;49183;51.380;0.098;2023-12-20T13:02:53;2.70;;;1.10;;
63093;SDS011;49183;51.380;0.098;2023-12-20T13:05:21;3.35;;;1.40;;
63093;SDS011;49183;51.380;0.098;2023-12-20T13:07:48;5.45;;;1.60;;
63093;SDS011;49183;51.380;0.098;2023-12-20T13:10:17;4.03;;;1.30;;
63093;SDS011;49183;51.380;0.098;2023-12-20T13:12:45;2.20;;;1.10;;
63093;SDS011;49183;51.380;0.098;2023-12-20T13:15:13;2.63;;;0.93;;
63093;SDS011;49183;51.380;0.098;2023-12-20T13:17:41;6.43;;;1.70;;
63093;SDS011;49183;51.380;0.098;2023-12-20T13:20:10;3.23;;;2.43;;
63093;SDS011;49183;51.380;0.098;2023-12-20T13:22:39;5.15;;;1.33;;
63093;SDS011;49183;51.380;0.098;2023-12-20T13:25:07;3.22;;;1.10;;
63093;SDS011;49183;51.380;0.098;2023-12-20T13:27:35;3.30;;;1.08;;
63093;SDS011;49183;51.380;0.098;2023-12-20T13:30:04;1.40;;;0.80;;
63093;SDS011;49183;51.380;0.098;2023-12-20T13:32:33;3.13;;;1.88;;
63093;SDS011;49183;51.380;0.098;2023-12-20T13:35:01;5.20;;;1.25;;
63093;SDS011;49183;51.380;0.098;2023-12-20T13:37:32;3.70;;;0.95;;
63093;SDS011;49183;51.380;0.098;2023-12-20T13:40:00;2.65;;;1.10;;
63093;SDS011;49183;51.380;0.098;2023-12-20T13:42:31;4.32;;;1.33;;
63093;SDS011;49183;51.380;0.098;2023-12-20T13:44:59;6.30;;;1.87;;
63093;SDS011;49183;51.380;0.098;2023-12-20T13:47:27;4.38;;;1.55;;
63093;SDS011;49183;51.380;0.098;2023-12-20T13:49:56;3.03;;;0.90;;
63093;SDS011;49183;51.380;0.098;2023-12-20T13:52:24;4.45;;;1.40;;
63093;SDS011;49183;51.380;0.098;2023-12-20T13:54:53;4.28;;;1.40;;
63093;SDS011;49183;51.380;0.098;2023-12-20T13:57:21;2.20;;;1.02;;
63093;SDS011;49183;51.380;0.098;2023-12-20T14:00:10;5.47;;;1.48;;
63093;SDS011;49183;51.380;0.098;2023-12-20T14:02:43;3.60;;;1.25;;
63093;SDS011;49183;51.380;0.098;2023-12-20T14:05:12;4.68;;;0.90;;
63093;SDS011;49183;51.380;0.098;2023-12-20T14:07:42;5.32;;;1.35;;
63093;SDS011;49183;51.380;0.098;2023-12-20T14:10:13;2.53;;;0.98;;
63093;SDS011;49183;51.380;0.098;2023-12-20T14:12:42;3.17;;;2.00;;
63093;SDS011;49183;51.380;0.098;2023-12-20T14:17:40;2.63;;;1.00;;
63093;SDS011;49183;51.380;0.098;2023-12-20T14:20:12;3.17;;;1.00;;
63093;SDS011;49183;51.380;0.098;2023-12-20T14:22:40;3.15;;;1.38;;
63093;SDS011;49183;51.380;0.098;2023-12-20T14:25:11;3.60;;;1.38;;
63093;SDS011;49183;51.380;0.098;2023-12-20T14:27:41;3.53;;;1.20;;
63093;SDS011;49183;51.380;0.098;2023-12-20T14:30:12;4.70;;;1.17;;
63093;SDS011;49183;51.380;0.098;2023-12-20T14:32:42;3.67;;;1.10;;
63093;SDS011;49183;51.380;0.098;2023-12-20T14:35:10;4.07;;;1.10;;
63093;SDS011;49183;51.380;0.098;2023-12-20T14:37:40;4.50;;;1.63;;
63093;SDS011;49183;51.380;0.098;2023-12-20T14:40:08;3.15;;;0.90;;
63093;SDS011;49183;51.380;0.098;2023-12-20T14:42:45;3.45;;;1.30;;
63093;SDS011;49183;51.380;0.098;2023-12-20T14:45:14;2.13;;;0.73;;
63093;SDS011;49183;51.380;0.098;2023-12-20T14:47:43;3.15;;;0.70;;
63093;SDS011;49183;51.380;0.098;2023-12-20T14:52:46;1.10;;;0.90;;
63093;SDS011;49183;51.380;0.098;2023-12-20T14:55:14;2.22;;;1.15;;
63093;SDS011;49183;51.380;0.098;2023-12-20T14:57:43;3.47;;;0.93;;
63093;SDS011;49183;51.380;0.098;2023-12-20T15:00:12;2.25;;;0.85;;
63093;SDS011;49183;51.380;0.098;2023-12-20T15:02:43;4.45;;;1.40;;
63093;SDS011;49183;51.380;0.098;2023-12-20T15:10:10;3.03;;;0.70;;
63093;SDS011;49183;51.380;0.098;2023-12-20T15:12:38;2.40;;;1.35;;
63093;SDS011;49183;51.380;0.098;2023-12-20T15:15:07;2.13;;;0.90;;
63093;SDS011;49183;51.380;0.098;2023-12-20T15:17:37;3.50;;;1.50;;
63093;SDS011;49183;51.380;0.098;2023-12-20T15:20:05;3.50;;;0.93;;
63093;SDS011;49183;51.380;0.098;2023-12-20T15:22:37;3.38;;;1.80;;
63093;SDS011;49183;51.380;0.098;2023-12-20T15:25:07;6.18;;;1.30;;